Terminal Aerodrome Forecast
Issued by NWS

Home | Current Version | Previous Version | Text Only | Print | Product List | Glossary On
Versions: 1 2 3 4 5 6 7 8 9 10 11 12 13
964
FTUS45 KABQ 241743
TAFFMN
TAF
KFMN 241743Z 2418/2518 09006KT P6SM FEW150
     FM241900 27011KT P6SM FEW110
      TEMPO 2421/2424 27011G21KT SCT110
     FM250200 06006KT P6SM SCT110
     FM250900 08008KT P6SM FEW150=

USA.gov is the U.S. government's official web portal to all federal, state and local government web resources and services.